Time,TemperatureF,DewpointF,PressureIn,WindDirection,WindDirectionDegrees,WindSpeedMPH,WindSpeedGustMPH,Humidity,HourlyPrecipIn,Conditions,Clouds,dailyrainin,SoftwareType,DateUTC
2013-08-21 00:11:00,57.0,57.0,30.06,WNW,287,0.0,2.0,100,0.00,,,0.00,,2013-08-21 07:11:00,
2013-08-21 00:21:00,57.0,57.0,30.06,West,267,0.0,0.0,100,0.00,,,0.00,,2013-08-21 07:21:00,
2013-08-21 00:53:00,56.0,56.0,30.06,SSE,151,2.0,3.0,100,0.00,,,0.00,,2013-08-21 07:53:00,
2013-08-21 01:12:00,56.0,56.0,30.05,SSE,165,1.0,2.0,100,0.00,,,0.00,,2013-08-21 08:12:00,
2013-08-21 01:22:00,56.0,56.0,30.05,SSE,165,1.0,2.0,100,0.00,,,0.00,,2013-08-21 08:22:00,
2013-08-21 01:52:00,55.0,55.0,30.05,SSE,150,0.0,2.0,100,0.00,,,0.00,,2013-08-21 08:52:00,
2013-08-21 02:11:00,55.0,55.0,30.05,SSE,150,0.0,2.0,100,0.00,,,0.00,,2013-08-21 09:11:00,
2013-08-21 02:22:00,54.0,54.0,30.05,NNW,337,2.0,3.0,100,0.00,,,0.00,,2013-08-21 09:22:00,
2013-08-21 02:53:00,54.0,54.0,30.04,NE,46,1.0,2.0,100,0.00,,,0.00,,2013-08-21 09:53:00,
2013-08-21 03:03:00,54.0,54.0,30.04,NE,46,1.0,2.0,100,0.00,,,0.00,,2013-08-21 10:03:00,
2013-08-21 03:12:00,54.0,54.0,30.04,NE,46,1.0,2.0,100,0.00,,,0.00,,2013-08-21 10:12:00,
2013-08-21 03:23:00,54.0,54.0,30.04,SE,136,0.0,0.0,100,0.00,,,0.00,,2013-08-21 10:23:00,
2013-08-21 03:43:00,53.0,53.0,30.04,West,281,1.0,2.0,100,0.00,,,0.00,,2013-08-21 10:43:00,
2013-08-21 03:52:00,53.0,53.0,30.03,West,281,0.0,2.0,100,0.00,,,0.00,,2013-08-21 10:52:00,
2013-08-21 04:11:00,53.0,53.0,30.03,ENE,76,0.0,2.0,100,0.00,,,0.00,,2013-08-21 11:11:00,
2013-08-21 04:22:00,53.0,53.0,30.04,East,82,1.0,2.0,100,0.00,,,0.00,,2013-08-21 11:22:00,
2013-08-21 04:42:00,53.0,53.0,30.04,East,86,0.0,0.0,100,0.00,,,0.00,,2013-08-21 11:42:00,
2013-08-21 04:52:00,52.0,52.0,30.03,NNE,19,2.0,3.0,100,0.00,,,0.00,,2013-08-21 11:52:00,
2013-08-21 05:12:00,52.0,52.0,30.02,NNE,28,1.0,3.0,100,0.00,,,0.00,,2013-08-21 12:12:00,
2013-08-21 05:22:00,53.0,53.0,30.03,NE,38,0.0,2.0,100,0.00,,,0.00,,2013-08-21 12:22:00,
2013-08-21 05:52:00,53.0,53.0,30.03,SE,142,4.0,5.0,100,0.00,,,0.00,,2013-08-21 12:52:00,
2013-08-21 06:12:00,53.0,53.0,30.02,SE,139,3.0,4.0,100,0.00,,,0.00,,2013-08-21 13:12:00,
2013-08-21 06:21:00,53.0,53.0,30.02,SE,127,3.0,4.0,100,0.00,,,0.00,,2013-08-21 13:21:00,
2013-08-21 06:42:00,53.0,53.0,30.03,SE,135,0.0,3.0,100,0.00,,,0.00,,2013-08-21 13:42:00,
2013-08-21 06:52:00,52.0,52.0,30.03,West,262,2.0,3.0,100,0.00,,,0.00,,2013-08-21 13:52:00,
2013-08-21 07:11:00,51.0,51.0,30.03,North,355,0.0,1.0,100,0.00,,,0.00,,2013-08-21 14:11:00,
2013-08-21 07:21:00,51.0,51.0,30.03,North,355,0.0,0.0,100,0.00,,,0.00,,2013-08-21 14:21:00,
2013-08-21 07:52:00,53.0,53.0,30.04,NNE,18,1.0,2.0,100,0.00,,,0.00,,2013-08-21 14:52:00,
2013-08-21 08:11:00,54.0,54.0,30.04,East,88,0.0,1.0,100,0.00,,,0.00,,2013-08-21 15:11:00,
2013-08-21 08:22:00,55.0,55.0,30.04,ESE,107,0.0,1.0,100,0.00,,,0.00,,2013-08-21 15:22:00,
2013-08-21 08:43:00,55.0,55.0,30.03,ENE,74,1.0,2.0,100,0.00,,,0.00,,2013-08-21 15:43:00,
2013-08-21 08:54:00,56.0,56.0,30.03,ENE,72,0.0,1.0,100,0.00,,,0.00,,2013-08-21 15:54:00,
2013-08-21 09:24:00,59.0,59.0,30.03,SE,142,0.0,2.0,100,0.00,,,0.00,,2013-08-21 16:24:00,
2013-08-21 09:53:00,58.0,58.0,30.03,West,279,5.0,6.0,100,0.00,,,0.00,,2013-08-21 16:53:00,
2013-08-21 10:13:00,58.0,58.0,30.03,WNW,294,1.0,5.0,100,0.00,,,0.00,,2013-08-21 17:13:00,
2013-08-21 10:23:00,61.0,61.0,30.03,West,275,5.0,7.0,100,0.00,,,0.00,,2013-08-21 17:23:00,
2013-08-21 12:11:00,62.0,62.0,30.02,WNW,299,8.0,12.0,100,0.00,,,0.00,,2013-08-21 19:11:00,
2013-08-21 12:22:00,62.0,62.0,30.02,WNW,288,7.0,13.0,100,0.00,,,0.00,,2013-08-21 19:22:00,
2013-08-21 12:52:00,63.0,63.0,30.02,WNW,293,7.0,12.0,100,0.00,,,0.00,,2013-08-21 19:52:00,
2013-08-21 13:11:00,62.0,62.0,30.01,WNW,290,9.0,12.0,100,0.00,,,0.00,,2013-08-21 20:11:00,
2013-08-21 13:22:00,60.0,60.0,30.01,WNW,287,3.0,11.0,100,0.00,,,0.00,,2013-08-21 20:22:00,
2013-08-21 13:52:00,60.0,60.0,30.01,WNW,290,8.0,14.0,100,0.00,,,0.00,,2013-08-21 20:52:00,
2013-08-21 14:21:00,63.0,63.0,30.00,WNW,286,9.0,15.0,100,0.00,,,0.00,,2013-08-21 21:21:00,
2013-08-21 14:54:00,64.0,64.0,29.99,WNW,298,13.0,19.0,100,0.00,,,0.00,,2013-08-21 21:54:00,
2013-08-21 15:24:00,62.0,62.0,29.99,NW,316,14.0,21.0,100,0.00,,,0.00,,2013-08-21 22:24:00,
2013-08-21 15:53:00,63.0,63.0,29.98,NNW,334,14.0,19.0,100,0.00,,,0.00,,2013-08-21 22:53:00,
2013-08-21 16:12:00,62.0,62.0,29.97,NW,308,12.0,19.0,100,0.00,,,0.00,,2013-08-21 23:12:00,
2013-08-21 16:22:00,62.0,62.0,29.96,NW,315,16.0,21.0,100,0.00,,,0.00,,2013-08-21 23:22:00,
2013-08-21 16:52:00,64.0,64.0,29.96,WNW,300,16.0,21.0,100,0.00,,,0.00,,2013-08-21 23:52:00,
2013-08-21 17:12:00,64.0,64.0,29.95,NW,317,12.0,21.0,100,0.00,,,0.00,,2013-08-22 00:12:00,
2013-08-21 17:21:00,63.0,63.0,29.95,NW,306,12.0,21.0,100,0.00,,,0.00,,2013-08-22 00:21:00,
2013-08-21 17:32:00,63.0,63.0,29.95,NW,306,12.0,21.0,100,0.00,,,0.00,,2013-08-22 00:32:00,
2013-08-21 17:42:00,63.0,63.0,29.95,NW,306,12.0,21.0,100,0.00,,,0.00,,2013-08-22 00:42:00,
2013-08-21 17:52:00,64.0,64.0,29.95,NW,309,13.0,19.0,100,0.00,,,0.00,,2013-08-22 00:52:00,
2013-08-21 18:11:00,63.0,63.0,29.94,NNW,327,13.0,23.0,100,0.00,,,0.00,,2013-08-22 01:11:00,
2013-08-21 18:22:00,63.0,63.0,29.94,WNW,295,10.0,20.0,100,0.00,,,0.00,,2013-08-22 01:22:00,
2013-08-21 18:42:00,63.0,63.0,29.94,NW,311,11.0,18.0,100,0.00,,,0.00,,2013-08-22 01:42:00,
2013-08-21 18:52:00,62.0,62.0,29.94,NW,320,13.0,19.0,100,0.00,,,0.00,,2013-08-22 01:52:00,
2013-08-21 19:22:00,60.0,60.0,29.94,WNW,291,17.0,22.0,100,0.00,,,0.00,,2013-08-22 02:22:00,
2013-08-21 20:12:00,61.0,61.0,29.94,WNW,300,9.0,13.0,100,0.00,,,0.00,,2013-08-22 03:12:00,
2013-08-21 20:22:00,60.0,60.0,29.94,NNW,344,8.0,14.0,100,0.00,,,0.00,,2013-08-22 03:22:00,
2013-08-21 20:45:00,60.0,60.0,29.94,NW,313,8.0,10.0,100,0.00,,,0.00,,2013-08-22 03:45:00,
2013-08-21 20:54:00,59.0,59.0,29.94,NW,306,6.0,10.0,100,0.00,,,0.00,,2013-08-22 03:54:00,
2013-08-21 21:14:00,58.0,58.0,29.95,NW,318,3.0,8.0,100,0.00,,,0.00,,2013-08-22 04:14:00,
2013-08-21 21:23:00,58.0,58.0,29.95,NW,325,4.0,7.0,100,0.00,,,0.00,,2013-08-22 04:23:00,
2013-08-21 21:54:00,58.0,58.0,29.95,NW,312,3.0,7.0,100,0.00,,,0.00,,2013-08-22 04:54:00,
2013-08-21 22:12:00,58.0,58.0,29.95,NW,310,5.0,9.0,100,0.00,,,0.00,,2013-08-22 05:12:00,
2013-08-21 22:22:00,57.0,57.0,29.96,NW,315,7.0,11.0,100,0.00,,,0.00,,2013-08-22 05:22:00,
2013-08-21 22:43:00,57.0,57.0,29.96,NW,325,6.0,11.0,100,0.00,,,0.00,,2013-08-22 05:43:00,
2013-08-21 22:52:00,56.0,56.0,29.96,NW,309,4.0,10.0,100,0.00,,,0.00,,2013-08-22 05:52:00,
2013-08-21 23:12:00,56.0,56.0,29.96,NW,309,2.0,3.0,100,0.00,,,0.00,,2013-08-22 06:12:00,
2013-08-21 23:22:00,57.0,57.0,29.96,NW,309,0.0,2.0,100,0.00,,,0.00,,2013-08-22 06:22:00,
2013-08-21 23:42:00,57.0,57.0,29.96,NW,309,0.0,2.0,100,0.00,,,0.00,,2013-08-22 06:42:00,
2013-08-21 23:52:00,57.0,57.0,29.95,East,101,0.0,3.0,100,0.00,,,0.00,,2013-08-22 06:52:00,